Time;durP1;ratioP1;P1;durP2;ratioP2;P2;SDS_P1;SDS_P2;PMS_P1;PMS_P2;Temp;Humidity;BMP_temperature;BMP_pressure;BME280_temperature;BME280_humidity;BME280_pressure;Samples;Min_cycle;Max_cycle;Signal;HPM_P1;HPM_P2
2022/01/25 00:08:54;;;;;;;;;;;3.50;99.90;;;;;;5052442;28;20389;-74
2022/01/25 00:27:42;;;;;;;;;;;3.40;99.90;;;;;;5050804;28;20032;-74
2022/01/25 00:30:25;;;;;;;;;;;3.40;99.90;;;;;;5034489;28;19921;-72
2022/01/25 00:32:50;;;;;;;;;;;3.40;99.90;;;;;;5035003;28;19921;-72
2022/01/25 00:35:16;;;;;;;;;;;3.40;99.90;;;;;;5051704;28;20296;-72
2022/01/25 00:37:42;;;;;;;;;;;3.40;99.90;;;;;;5035155;28;20045;-73
2022/01/25 00:40:07;;;;;;;;;;;3.40;99.90;;;;;;5051529;28;19968;-72
2022/01/25 00:42:33;;;;;;;;;;;3.30;99.90;;;;;;5034655;28;19947;-73
2022/01/25 00:44:59;;;;;;;;;;;3.40;99.90;;;;;;5035010;28;19990;-72
2022/01/25 00:47:25;;;;;;;;;;;3.40;99.90;;;;;;5051033;28;20007;-72
2022/01/25 00:49:53;;;;;;;;;;;3.40;99.90;;;;;;5034818;28;19932;-75
2022/01/25 00:53:54;;;;;;;;;;;3.40;99.90;;;;;;5034876;28;19920;-72
2022/01/25 00:55:07;;;;;;;;;;;3.40;99.90;;;;;;5050734;28;20346;-72
2022/01/25 00:57:34;;;;;;;;;;;3.30;99.90;;;;;;5051047;28;19921;-75
2022/01/25 00:59:59;;;;;;;;;;;3.30;99.90;;;;;;5051211;28;19924;-73
2022/01/25 01:02:25;;;;;;;;;;;3.40;99.90;;;;;;5034855;28;19966;-72
2022/01/25 01:04:51;;;;;;;;;;;3.30;99.90;;;;;;5050942;28;19924;-73
2022/01/25 01:07:17;;;;;;;;;;;3.30;99.90;;;;;;5030882;28;19979;-72
2022/01/25 01:09:46;;;;;;;;;;;3.30;99.90;;;;;;5014957;28;19928;-73
2022/01/25 01:12:18;;;;;;;;;;;3.30;99.90;;;;;;5046337;28;19947;-74
2022/01/25 01:30:43;;;;;;;;;;;3.30;99.90;;;;;;5050870;28;20016;-72
2022/01/25 01:44:04;;;;;;;;;;;3.30;99.90;;;;;;5052025;28;19921;-75
2022/01/25 01:46:40;;;;;;;;;;;3.30;99.90;;;;;;5051672;28;19924;-72
2022/01/25 01:49:07;;;;;;;;;;;3.30;99.90;;;;;;5051507;28;20275;-72
2022/01/25 01:51:35;;;;;;;;;;;3.30;99.90;;;;;;5051967;28;19921;-75
2022/01/25 01:54:12;;;;;;;;;;;3.30;99.90;;;;;;5050759;28;19979;-73
2022/01/25 01:56:38;;;;;;;;;;;3.30;99.90;;;;;;5054547;28;19929;-73
2022/01/25 01:59:05;;;;;;;;;;;3.30;99.90;;;;;;5055262;28;19920;-72
2022/01/25 02:01:31;;;;;;;;;;;3.30;99.90;;;;;;5054361;28;20414;-73
2022/01/25 02:03:58;;;;;;;;;;;3.30;99.90;;;;;;5037765;28;19921;-74
2022/01/25 02:06:23;;;;;;;;;;;3.30;99.90;;;;;;5037678;28;19928;-72
2022/01/25 02:08:49;;;;;;;;;;;3.20;99.90;;;;;;5038056;28;20371;-73
2022/01/25 02:11:15;;;;;;;;;;;3.40;99.90;;;;;;5055598;28;20378;-73
2022/01/25 02:13:42;;;;;;;;;;;3.20;99.90;;;;;;5037641;28;19920;-72
2022/01/25 02:16:14;;;;;;;;;;;3.20;99.90;;;;;;5054393;28;20012;-73
2022/01/25 02:24:09;;;;;;;;;;;3.30;99.90;;;;;;5053874;28;19928;-72
2022/01/25 02:26:34;;;;;;;;;;;3.30;99.90;;;;;;5054057;28;20280;-72
2022/01/25 02:29:00;;;;;;;;;;;3.30;99.90;;;;;;5053961;28;19927;-72
2022/01/25 02:31:25;;;;;;;;;;;3.30;99.90;;;;;;5054161;28;20313;-75
2022/01/25 02:33:51;;;;;;;;;;;3.30;99.90;;;;;;5054060;28;19925;-72
2022/01/25 02:36:27;;;;;;;;;;;3.30;99.90;;;;;;5054300;28;19921;-72
2022/01/25 02:38:56;;;;;;;;;;;3.30;99.90;;;;;;5054443;28;19921;-73
2022/01/25 02:41:22;;;;;;;;;;;3.20;99.90;;;;;;5037380;28;19971;-73
2022/01/25 02:43:48;;;;;;;;;;;3.30;99.90;;;;;;5053761;28;19979;-73
2022/01/25 02:48:50;;;;;;;;;;;3.20;99.90;;;;;;5045553;28;20191;-75
2022/01/25 02:51:16;;;;;;;;;;;3.20;99.90;;;;;;5036994;28;19920;-74
2022/01/25 02:53:41;;;;;;;;;;;3.20;99.90;;;;;;5036621;28;20399;-74
2022/01/25 02:56:07;;;;;;;;;;;3.20;99.90;;;;;;5036285;28;20428;-74
2022/01/25 02:58:32;;;;;;;;;;;3.20;99.90;;;;;;5036909;28;19921;-74
2022/01/25 03:00:58;;;;;;;;;;;3.30;99.90;;;;;;5036898;28;19924;-74
2022/01/25 03:03:23;;;;;;;;;;;3.20;99.90;;;;;;5053099;28;19946;-76
2022/01/25 03:05:49;;;;;;;;;;;3.20;99.90;;;;;;5036211;28;19925;-76
2022/01/25 03:08:15;;;;;;;;;;;3.30;99.90;;;;;;5053052;28;19927;-76
2022/01/25 03:10:42;;;;;;;;;;;3.20;99.90;;;;;;5053263;28;19936;-76
2022/01/25 03:13:14;;;;;;;;;;;3.20;99.90;;;;;;5052999;28;20266;-75
2022/01/25 03:18:35;;;;;;;;;;;3.20;99.90;;;;;;5054323;28;19928;-75
2022/01/25 03:21:15;;;;;;;;;;;3.20;99.90;;;;;;5052986;28;20390;-75
2022/01/25 03:23:40;;;;;;;;;;;3.20;99.90;;;;;;5052853;28;20188;-75
2022/01/25 03:26:06;;;;;;;;;;;3.20;99.90;;;;;;5053924;28;19940;-76
2022/01/25 03:28:31;;;;;;;;;;;3.20;99.90;;;;;;5052619;28;19920;-75
2022/01/25 03:30:57;;;;;;;;;;;3.20;99.90;;;;;;5052991;28;20329;-76
2022/01/25 03:33:22;;;;;;;;;;;3.20;99.90;;;;;;5053995;28;20007;-75
2022/01/25 03:35:48;;;;;;;;;;;3.20;99.90;;;;;;5035568;28;19974;-75
2022/01/25 03:38:13;;;;;;;;;;;3.20;99.90;;;;;;5052684;28;19921;-75
2022/01/25 03:40:39;;;;;;;;;;;3.20;99.90;;;;;;5036263;28;19967;-75
2022/01/25 03:43:06;;;;;;;;;;;3.20;99.90;;;;;;5035535;28;19928;-75
2022/01/25 03:45:34;;;;;;;;;;;3.20;99.90;;;;;;5035873;28;19928;-75
2022/01/25 03:50:47;;;;;;;;;;;3.10;99.90;;;;;;5022155;28;19928;-75
2022/01/25 03:53:14;;;;;;;;;;;3.20;99.90;;;;;;5032573;28;20446;-75
2022/01/25 03:55:40;;;;;;;;;;;3.20;99.90;;;;;;5019303;28;19920;-75
2022/01/25 03:58:06;;;;;;;;;;;3.10;99.90;;;;;;5035718;28;20272;-76
2022/01/25 04:00:32;;;;;;;;;;;3.10;99.90;;;;;;5052355;28;19950;-75
2022/01/25 04:03:04;;;;;;;;;;;3.20;99.90;;;;;;5035456;28;19921;-75
2022/01/25 04:05:50;;;;;;;;;;;3.20;99.90;;;;;;5052149;28;19921;-75
2022/01/25 04:08:16;;;;;;;;;;;3.20;99.90;;;;;;5037845;28;19921;-75
2022/01/25 04:10:42;;;;;;;;;;;3.10;99.90;;;;;;5051988;28;19921;-75
2022/01/25 04:13:08;;;;;;;;;;;3.20;99.90;;;;;;5035169;28;20385;-75
2022/01/25 04:15:34;;;;;;;;;;;3.10;99.90;;;;;;5035342;28;20416;-75
2022/01/25 04:18:20;;;;;;;;;;;3.10;99.90;;;;;;5034613;28;19956;-75
2022/01/25 04:20:58;;;;;;;;;;;3.10;99.90;;;;;;5035071;28;19924;-75
2022/01/25 04:26:08;;;;;;;;;;;3.10;99.90;;;;;;5051722;28;20319;-75
2022/01/25 04:28:33;;;;;;;;;;;3.20;99.90;;;;;;5052596;28;19921;-74
2022/01/25 04:30:59;;;;;;;;;;;3.10;99.90;;;;;;5035131;28;19921;-74
2022/01/25 04:33:28;;;;;;;;;;;3.20;99.90;;;;;;5034806;28;20276;-74
2022/01/25 04:36:09;;;;;;;;;;;3.20;99.90;;;;;;5051137;28;19924;-74
2022/01/25 04:49:34;;;;;;;;;;;3.20;99.90;;;;;;5051380;28;19968;-75
2022/01/25 04:52:05;;;;;;;;;;;3.20;99.90;;;;;;5035255;28;19960;-75
2022/01/25 04:54:40;;;;;;;;;;;3.10;99.90;;;;;;5051556;28;20387;-75
2022/01/25 04:59:52;;;;;;;;;;;3.10;99.90;;;;;;5051432;28;20003;-75
2022/01/25 05:04:56;;;;;;;;;;;3.20;99.90;;;;;;5051305;28;20011;-75
2022/01/25 05:07:42;;;;;;;;;;;3.20;99.90;;;;;;5033996;28;19976;-74
2022/01/25 05:10:08;;;;;;;;;;;3.10;99.90;;;;;;5034289;28;19928;-74
2022/01/25 05:12:41;;;;;;;;;;;3.20;99.90;;;;;;5030665;28;19929;-74
2022/01/25 05:18:03;;;;;;;;;;;3.10;99.90;;;;;;5038286;28;19967;-75
2022/01/25 05:23:13;;;;;;;;;;;3.10;99.90;;;;;;5050403;28;20444;-75
2022/01/25 05:25:38;;;;;;;;;;;3.20;99.90;;;;;;5050642;28;19921;-75
2022/01/25 05:28:04;;;;;;;;;;;3.10;99.90;;;;;;5033813;28;19967;-75
2022/01/25 05:30:29;;;;;;;;;;;3.20;99.90;;;;;;5050437;28;20643;-75
2022/01/25 05:32:55;;;;;;;;;;;3.10;99.90;;;;;;5051033;28;19920;-75
2022/01/25 05:35:20;;;;;;;;;;;3.20;99.90;;;;;;5034225;28;19925;-75
2022/01/25 05:37:46;;;;;;;;;;;3.20;99.90;;;;;;5033360;28;19928;-75
2022/01/25 05:40:17;;;;;;;;;;;3.20;99.90;;;;;;5050641;28;19921;-75
2022/01/25 05:42:49;;;;;;;;;;;3.20;99.90;;;;;;5050427;28;20004;-75
2022/01/25 05:45:21;;;;;;;;;;;3.20;99.90;;;;;;5051940;28;19928;-75
2022/01/25 05:47:47;;;;;;;;;;;3.20;99.90;;;;;;5050425;28;19965;-75
2022/01/25 05:50:13;;;;;;;;;;;3.20;99.90;;;;;;5050380;28;19944;-75
2022/01/25 05:52:39;;;;;;;;;;;3.20;99.90;;;;;;5050225;28;19921;-75
2022/01/25 05:55:05;;;;;;;;;;;3.20;99.90;;;;;;5050361;28;20272;-75
2022/01/25 05:57:31;;;;;;;;;;;3.20;99.90;;;;;;5050370;28;20027;-75
2022/01/25 05:59:56;;;;;;;;;;;3.10;99.90;;;;;;5050144;28;20460;-75
2022/01/25 06:02:25;;;;;;;;;;;3.20;99.90;;;;;;5033494;28;19924;-75
2022/01/25 06:04:52;;;;;;;;;;;3.20;99.90;;;;;;5033826;28;19920;-75
2022/01/25 06:07:17;;;;;;;;;;;3.20;99.90;;;;;;5051548;28;19925;-75
2022/01/25 06:09:43;;;;;;;;;;;3.10;99.90;;;;;;5050015;28;19927;-75
2022/01/25 06:12:09;;;;;;;;;;;3.10;99.90;;;;;;5050252;28;19924;-75
2022/01/25 06:14:35;;;;;;;;;;;3.10;99.90;;;;;;5050211;28;20000;-75
2022/01/25 06:17:00;;;;;;;;;;;3.20;99.90;;;;;;5033425;28;20017;-75
2022/01/25 06:19:26;;;;;;;;;;;3.10;99.90;;;;;;5050095;28;20427;-75
2022/01/25 06:21:51;;;;;;;;;;;3.10;99.90;;;;;;5033657;28;19967;-75
2022/01/25 06:24:17;;;;;;;;;;;3.20;99.90;;;;;;5051135;28;19920;-75
2022/01/25 06:26:45;;;;;;;;;;;3.10;99.90;;;;;;5049815;28;20395;-75
2022/01/25 06:29:15;;;;;;;;;;;3.10;99.90;;;;;;5033730;28;19932;-75
2022/01/25 06:31:41;;;;;;;;;;;3.10;99.90;;;;;;5033617;28;19960;-75
2022/01/25 06:34:06;;;;;;;;;;;3.10;99.90;;;;;;5046406;28;19976;-75
2022/01/25 06:36:32;;;;;;;;;;;3.10;99.90;;;;;;5042688;28;20329;-75
2022/01/25 06:38:57;;;;;;;;;;;3.10;99.90;;;;;;5033241;28;19921;-75
2022/01/25 06:41:23;;;;;;;;;;;3.10;99.90;;;;;;5034167;28;19947;-75
2022/01/25 06:43:48;;;;;;;;;;;3.10;99.90;;;;;;5037427;28;19921;-75
2022/01/25 06:46:14;;;;;;;;;;;3.10;99.90;;;;;;5036888;28;20031;-75
2022/01/25 06:48:39;;;;;;;;;;;3.10;99.90;;;;;;5036840;28;19928;-75
2022/01/25 06:51:05;;;;;;;;;;;3.10;99.90;;;;;;5053931;28;19921;-75
2022/01/25 06:53:30;;;;;;;;;;;3.20;99.90;;;;;;5037094;28;19932;-76
2022/01/25 06:55:56;;;;;;;;;;;3.10;99.90;;;;;;5054765;28;19928;-76
2022/01/25 06:58:21;;;;;;;;;;;3.00;99.90;;;;;;5052811;28;19921;-76
2022/01/25 07:00:47;;;;;;;;;;;3.10;99.90;;;;;;5036901;28;20019;-76
2022/01/25 07:03:12;;;;;;;;;;;3.20;99.90;;;;;;5036375;28;20004;-75
2022/01/25 07:05:39;;;;;;;;;;;3.20;99.90;;;;;;5053580;28;19921;-75
2022/01/25 07:08:05;;;;;;;;;;;3.20;99.90;;;;;;5053128;28;20310;-75
2022/01/25 07:10:30;;;;;;;;;;;3.10;99.90;;;;;;5052937;28;19947;-75
2022/01/25 07:12:56;;;;;;;;;;;3.10;99.90;;;;;;5036483;28;19924;-75
2022/01/25 07:15:21;;;;;;;;;;;3.10;99.90;;;;;;5036553;28;20264;-75
2022/01/25 07:17:47;;;;;;;;;;;3.10;99.90;;;;;;5053308;28;19925;-75
2022/01/25 07:20:12;;;;;;;;;;;3.20;99.90;;;;;;5036298;28;19921;-75
2022/01/25 07:22:39;;;;;;;;;;;3.10;99.90;;;;;;5036274;28;19986;-75
2022/01/25 07:25:05;;;;;;;;;;;3.10;99.90;;;;;;5053055;28;19921;-75
2022/01/25 07:27:31;;;;;;;;;;;3.10;99.90;;;;;;5052653;28;19939;-75
2022/01/25 07:29:56;;;;;;;;;;;3.10;99.90;;;;;;5036147;28;20291;-75
2022/01/25 07:32:22;;;;;;;;;;;3.10;99.90;;;;;;5054210;28;19928;-75
2022/01/25 07:34:48;;;;;;;;;;;3.10;99.90;;;;;;5054020;28;19920;-75
2022/01/25 07:37:13;;;;;;;;;;;3.10;99.90;;;;;;5035909;28;20463;-75
2022/01/25 07:39:39;;;;;;;;;;;3.10;99.90;;;;;;5035957;28;19963;-75
2022/01/25 07:42:04;;;;;;;;;;;3.10;99.90;;;;;;5035592;28;19927;-75
2022/01/25 07:44:32;;;;;;;;;;;3.10;99.90;;;;;;5052713;28;19970;-75
2022/01/25 07:47:00;;;;;;;;;;;3.10;99.90;;;;;;5035664;28;20008;-75
2022/01/25 07:49:29;;;;;;;;;;;3.10;99.90;;;;;;5052396;28;19921;-75
2022/01/25 07:51:55;;;;;;;;;;;3.10;99.90;;;;;;5051601;28;19928;-75
2022/01/25 07:54:23;;;;;;;;;;;3.10;99.90;;;;;;5035960;28;19924;-77
2022/01/25 07:56:49;;;;;;;;;;;3.10;99.90;;;;;;5036009;28;19927;-76
2022/01/25 07:59:18;;;;;;;;;;;3.10;99.90;;;;;;5029476;28;20004;-78
2022/01/25 08:01:44;;;;;;;;;;;3.10;99.90;;;;;;5032455;28;20425;-77
2022/01/25 08:04:10;;;;;;;;;;;3.10;99.90;;;;;;5035692;28;19921;-76
2022/01/25 08:06:38;;;;;;;;;;;3.20;99.90;;;;;;5034161;28;20028;-77
2022/01/25 08:09:05;;;;;;;;;;;3.10;99.90;;;;;;5025196;28;19921;-76
2022/01/25 08:11:31;;;;;;;;;;;3.20;99.90;;;;;;5034729;28;19927;-77
2022/01/25 08:14:11;;;;;;;;;;;3.10;99.90;;;;;;5030075;28;20383;-76
2022/01/25 08:16:36;;;;;;;;;;;3.20;99.90;;;;;;5033564;28;19976;-77
2022/01/25 08:19:02;;;;;;;;;;;3.20;99.90;;;;;;5022598;28;20744;-77
2022/01/25 08:21:28;;;;;;;;;;;3.20;99.90;;;;;;5046418;28;19936;-76
2022/01/25 08:23:53;;;;;;;;;;;3.20;99.90;;;;;;5028701;28;19925;-76
2022/01/25 08:26:22;;;;;;;;;;;3.20;99.90;;;;;;5048210;28;19929;-76
2022/01/25 08:28:47;;;;;;;;;;;3.10;99.90;;;;;;5030820;28;20016;-77
2022/01/25 08:31:13;;;;;;;;;;;3.20;99.90;;;;;;5026593;28;20120;-74
2022/01/25 08:33:39;;;;;;;;;;;3.20;99.90;;;;;;5043262;28;19921;-74
2022/01/25 08:36:05;;;;;;;;;;;3.20;99.90;;;;;;5028457;28;19966;-75
2022/01/25 08:38:30;;;;;;;;;;;3.20;99.90;;;;;;5042689;28;19991;-75
2022/01/25 08:40:56;;;;;;;;;;;3.20;99.90;;;;;;5044564;28;20079;-75
2022/01/25 08:43:22;;;;;;;;;;;3.30;99.90;;;;;;5028930;28;19921;-75
2022/01/25 08:45:47;;;;;;;;;;;3.30;99.90;;;;;;5030626;28;20350;-75
2022/01/25 08:48:13;;;;;;;;;;;3.20;99.90;;;;;;5031224;28;20019;-74
2022/01/25 08:50:38;;;;;;;;;;;3.30;99.90;;;;;;5028568;28;19922;-76
2022/01/25 08:53:04;;;;;;;;;;;3.30;99.90;;;;;;5043380;28;19925;-76
2022/01/25 08:55:30;;;;;;;;;;;3.30;99.90;;;;;;5028119;28;19929;-74
2022/01/25 08:57:57;;;;;;;;;;;3.30;99.90;;;;;;5029349;28;19928;-74
2022/01/25 09:00:22;;;;;;;;;;;3.30;99.90;;;;;;5031772;28;19921;-74
2022/01/25 09:02:48;;;;;;;;;;;3.40;99.90;;;;;;5033938;28;19928;-74
2022/01/25 09:05:13;;;;;;;;;;;3.40;99.90;;;;;;5030572;28;19924;-74
2022/01/25 09:07:39;;;;;;;;;;;3.40;99.90;;;;;;5043859;28;19929;-74
2022/01/25 09:10:06;;;;;;;;;;;3.40;99.90;;;;;;5028867;28;19921;-74
2022/01/25 09:12:31;;;;;;;;;;;3.40;99.90;;;;;;5025450;28;20350;-74
2022/01/25 09:14:57;;;;;;;;;;;3.40;99.90;;;;;;5025796;28;20015;-74
2022/01/25 09:17:22;;;;;;;;;;;3.40;99.90;;;;;;5033551;28;19921;-74
2022/01/25 09:19:48;;;;;;;;;;;3.40;99.90;;;;;;5027158;28;19986;-74
2022/01/25 09:22:14;;;;;;;;;;;3.40;99.90;;;;;;5026235;28;19921;-74
2022/01/25 09:24:39;;;;;;;;;;;3.40;99.90;;;;;;5042578;28;20402;-74
2022/01/25 09:27:07;;;;;;;;;;;3.40;99.90;;;;;;5035760;28;19924;-74
2022/01/25 09:29:33;;;;;;;;;;;3.50;99.90;;;;;;5025128;28;20300;-74
2022/01/25 09:31:59;;;;;;;;;;;3.50;99.90;;;;;;5031355;28;19946;-74
2022/01/25 09:34:25;;;;;;;;;;;3.50;99.90;;;;;;5028055;28;19921;-74
2022/01/25 09:36:51;;;;;;;;;;;3.40;99.90;;;;;;5015063;28;20012;-74
2022/01/25 09:39:17;;;;;;;;;;;3.50;99.90;;;;;;5042705;28;20409;-74
2022/01/25 09:41:42;;;;;;;;;;;3.50;99.90;;;;;;5033528;28;19920;-74
2022/01/25 09:44:08;;;;;;;;;;;3.50;99.90;;;;;;5029462;28;19921;-74
2022/01/25 09:46:33;;;;;;;;;;;3.50;99.90;;;;;;5025601;28;19925;-74
2022/01/25 09:48:59;;;;;;;;;;;3.60;99.90;;;;;;5029136;28;20349;-74
2022/01/25 09:51:25;;;;;;;;;;;3.60;99.90;;;;;;5032251;28;19940;-74
2022/01/25 09:53:51;;;;;;;;;;;3.60;99.90;;;;;;5041054;28;20057;-74
2022/01/25 09:56:16;;;;;;;;;;;3.60;99.90;;;;;;5030762;28;19921;-74
2022/01/25 09:58:44;;;;;;;;;;;3.60;99.90;;;;;;5030902;28;19940;-74
2022/01/25 10:01:10;;;;;;;;;;;3.60;99.90;;;;;;5046448;28;19921;-75
2022/01/25 10:03:41;;;;;;;;;;;3.70;99.90;;;;;;5033286;28;20333;-74
2022/01/25 10:06:10;;;;;;;;;;;3.70;99.90;;;;;;5047326;28;19925;-73
2022/01/25 10:08:37;;;;;;;;;;;3.70;99.90;;;;;;5044172;28;19948;-73
2022/01/25 10:11:04;;;;;;;;;;;3.70;99.90;;;;;;5046388;28;19921;-73
2022/01/25 10:13:29;;;;;;;;;;;3.70;99.90;;;;;;5042125;28;19921;-74
2022/01/25 10:16:00;;;;;;;;;;;3.80;99.90;;;;;;5019872;28;20658;-73
2022/01/25 10:18:36;;;;;;;;;;;3.80;99.90;;;;;;5028889;28;20547;-74
2022/01/25 10:21:01;;;;;;;;;;;3.80;99.90;;;;;;5030265;28;19925;-73
2022/01/25 10:23:31;;;;;;;;;;;3.80;99.90;;;;;;5031816;28;19920;-74
2022/01/25 10:25:59;;;;;;;;;;;3.80;99.90;;;;;;5031848;28;19959;-73
2022/01/25 10:28:30;;;;;;;;;;;3.80;99.90;;;;;;5032556;28;19929;-76
2022/01/25 10:30:58;;;;;;;;;;;3.80;99.90;;;;;;5030702;28;19920;-76
2022/01/25 10:33:33;;;;;;;;;;;3.90;99.90;;;;;;5032948;28;19933;-73
2022/01/25 10:36:00;;;;;;;;;;;3.90;99.90;;;;;;5030535;28;19982;-76
2022/01/25 10:38:30;;;;;;;;;;;3.90;99.90;;;;;;5030871;28;19964;-75
2022/01/25 10:40:57;;;;;;;;;;;3.90;99.90;;;;;;5030112;28;20024;-74
2022/01/25 10:43:24;;;;;;;;;;;3.90;99.90;;;;;;5024424;28;20451;-74
2022/01/25 10:46:26;;;;;;;;;;;4.00;99.90;;;;;;5036719;28;20007;-72
2022/01/25 10:48:57;;;;;;;;;;;3.90;99.90;;;;;;4995872;28;19975;-73
2022/01/25 10:51:26;;;;;;;;;;;3.90;99.90;;;;;;5027669;28;19944;-75
2022/01/25 10:54:03;;;;;;;;;;;4.00;99.90;;;;;;5030693;28;19925;-74
2022/01/25 10:56:45;;;;;;;;;;;3.90;99.90;;;;;;5049589;28;19925;-74
2022/01/25 10:59:13;;;;;;;;;;;4.00;99.90;;;;;;5051717;28;19955;-73
2022/01/25 11:01:40;;;;;;;;;;;4.00;99.90;;;;;;5026235;28;19927;-74
2022/01/25 11:04:10;;;;;;;;;;;4.00;99.90;;;;;;5032227;28;20417;-74
2022/01/25 11:06:36;;;;;;;;;;;4.00;99.90;;;;;;5034660;28;19986;-73
2022/01/25 11:09:05;;;;;;;;;;;4.00;99.90;;;;;;5035995;28;19927;-73
2022/01/25 11:11:34;;;;;;;;;;;4.00;99.90;;;;;;5035866;28;19925;-73
2022/01/25 11:14:50;;;;;;;;;;;4.10;99.90;;;;;;5035979;28;19964;-73
2022/01/25 11:16:46;;;;;;;;;;;4.00;99.90;;;;;;5045226;28;19921;-72
2022/01/25 11:19:12;;;;;;;;;;;4.10;99.90;;;;;;5052760;28;19925;-74
2022/01/25 11:21:38;;;;;;;;;;;4.10;99.90;;;;;;5036305;28;19921;-73
2022/01/25 11:24:04;;;;;;;;;;;4.10;99.90;;;;;;5052546;28;19925;-76
2022/01/25 11:26:29;;;;;;;;;;;4.10;99.90;;;;;;5048917;28;19925;-74
2022/01/25 11:28:55;;;;;;;;;;;4.00;99.90;;;;;;5027979;28;20367;-74
2022/01/25 11:31:22;;;;;;;;;;;4.10;99.90;;;;;;5036120;28;19928;-73
2022/01/25 11:33:49;;;;;;;;;;;4.10;99.90;;;;;;5054025;28;19925;-74
2022/01/25 11:36:15;;;;;;;;;;;4.10;99.90;;;;;;5035725;28;19920;-74
2022/01/25 11:38:42;;;;;;;;;;;4.10;99.90;;;;;;5052576;28;19931;-73
2022/01/25 11:41:09;;;;;;;;;;;4.10;99.90;;;;;;5035251;28;19921;-73
2022/01/25 11:43:35;;;;;;;;;;;4.10;99.90;;;;;;5035916;28;20285;-74
2022/01/25 11:46:01;;;;;;;;;;;4.10;99.90;;;;;;5052371;28;19928;-74
2022/01/25 11:48:34;;;;;;;;;;;4.10;99.90;;;;;;5052228;28;19959;-74
2022/01/25 11:51:00;;;;;;;;;;;4.20;99.90;;;;;;5035830;28;20264;-74
2022/01/25 11:53:26;;;;;;;;;;;4.20;99.90;;;;;;5051475;28;19921;-73
2022/01/25 11:55:52;;;;;;;;;;;4.20;99.90;;;;;;5051141;28;19931;-73
2022/01/25 11:58:24;;;;;;;;;;;4.20;99.90;;;;;;5052081;28;19928;-73
2022/01/25 12:00:52;;;;;;;;;;;4.20;99.90;;;;;;5035635;28;19921;-73
2022/01/25 12:03:26;;;;;;;;;;;4.20;99.90;;;;;;5034854;28;20260;-74
2022/01/25 12:05:53;;;;;;;;;;;4.20;99.90;;;;;;5035433;28;20327;-74
2022/01/25 12:08:27;;;;;;;;;;;4.20;99.90;;;;;;5034803;28;19925;-75
2022/01/25 12:10:58;;;;;;;;;;;4.20;99.90;;;;;;5036123;28;19996;-74
2022/01/25 12:13:28;;;;;;;;;;;4.30;99.90;;;;;;5043271;28;20004;-74
2022/01/25 12:16:13;;;;;;;;;;;4.30;99.90;;;;;;5035194;28;19920;-74
2022/01/25 12:18:58;;;;;;;;;;;4.20;99.90;;;;;;5033511;28;20015;-74
2022/01/25 12:21:42;;;;;;;;;;;4.20;99.90;;;;;;5035067;28;19921;-74
2022/01/25 12:24:14;;;;;;;;;;;4.30;99.90;;;;;;5050489;28;19925;-74
2022/01/25 12:26:55;;;;;;;;;;;4.20;99.90;;;;;;5034360;28;19982;-73
2022/01/25 12:29:29;;;;;;;;;;;4.20;99.90;;;;;;5039911;28;19931;-74
2022/01/25 12:32:16;;;;;;;;;;;4.20;99.90;;;;;;5034377;28;21210;-74
2022/01/25 12:35:03;;;;;;;;;;;4.20;99.90;;;;;;5050956;28;20306;-74
2022/01/25 12:37:44;;;;;;;;;;;4.20;99.90;;;;;;5034044;28;19928;-74
2022/01/25 12:40:25;;;;;;;;;;;4.30;99.90;;;;;;5049656;28;19921;-74
2022/01/25 12:43:14;;;;;;;;;;;4.30;99.90;;;;;;5015298;28;19921;-74
2022/01/25 12:45:44;;;;;;;;;;;4.30;99.90;;;;;;5026229;28;20020;-74
2022/01/25 12:48:11;;;;;;;;;;;4.30;99.90;;;;;;5034672;28;20015;-74
2022/01/25 12:50:38;;;;;;;;;;;4.30;99.90;;;;;;5051135;28;19967;-74
2022/01/25 12:53:04;;;;;;;;;;;4.30;99.90;;;;;;5052162;28;19921;-74
2022/01/25 12:55:33;;;;;;;;;;;4.40;99.90;;;;;;5033037;28;19921;-74
2022/01/25 12:57:58;;;;;;;;;;;4.40;99.90;;;;;;5050474;28;19986;-74
2022/01/25 13:00:31;;;;;;;;;;;4.30;99.90;;;;;;5033953;28;19924;-73
2022/01/25 13:03:29;;;;;;;;;;;4.40;99.90;;;;;;5034109;28;19921;-74
2022/01/25 13:05:55;;;;;;;;;;;4.40;99.90;;;;;;4990868;28;19977;-74
2022/01/25 13:08:23;;;;;;;;;;;4.30;99.90;;;;;;5034196;28;19924;-74
2022/01/25 13:10:51;;;;;;;;;;;4.30;99.90;;;;;;5050567;28;19921;-74
2022/01/25 13:13:43;;;;;;;;;;;4.30;99.90;;;;;;5033883;28;19921;-74
2022/01/25 13:16:09;;;;;;;;;;;4.40;99.90;;;;;;5033952;28;20019;-73
2022/01/25 13:18:38;;;;;;;;;;;4.40;99.90;;;;;;5033984;28;20007;-74
2022/01/25 13:21:05;;;;;;;;;;;4.40;99.90;;;;;;5030387;28;19921;-74
2022/01/25 13:23:32;;;;;;;;;;;4.30;99.90;;;;;;5014217;28;19927;-74
2022/01/25 13:31:24;;;;;;;;;;;4.30;99.90;;;;;;4993129;28;20083;-74
2022/01/25 13:33:51;;;;;;;;;;;4.30;99.90;;;;;;5037652;28;20344;-74
2022/01/25 13:36:20;;;;;;;;;;;4.40;99.90;;;;;;5033928;28;19924;-74
2022/01/25 13:38:46;;;;;;;;;;;4.40;99.90;;;;;;5050355;28;19920;-74
2022/01/25 13:46:30;;;;;;;;;;;4.30;99.90;;;;;;5050345;28;20017;-74
2022/01/25 13:48:59;;;;;;;;;;;4.30;99.90;;;;;;5050136;28;20404;-74
2022/01/25 13:51:26;;;;;;;;;;;4.30;99.90;;;;;;5054802;28;20097;-73
2022/01/25 13:54:01;;;;;;;;;;;4.30;99.90;;;;;;5040247;28;20016;-74
2022/01/25 13:56:31;;;;;;;;;;;4.30;99.90;;;;;;5056489;28;19961;-74
2022/01/25 13:58:57;;;;;;;;;;;4.30;99.90;;;;;;5056869;28;19928;-73
2022/01/25 14:01:24;;;;;;;;;;;4.30;99.90;;;;;;5040480;28;19920;-74
2022/01/25 14:04:08;;;;;;;;;;;4.40;99.90;;;;;;5056466;28;19967;-74
2022/01/25 14:06:39;;;;;;;;;;;4.30;99.90;;;;;;5056721;28;19932;-74
2022/01/25 14:09:16;;;;;;;;;;;4.30;99.90;;;;;;5056736;28;19920;-74
2022/01/25 14:25:35;;;;;;;;;;;4.20;99.90;;;;;;5014789;28;19924;-73
2022/01/25 14:28:03;;;;;;;;;;;4.20;99.90;;;;;;5039641;28;19935;-74
2022/01/25 14:30:33;;;;;;;;;;;4.20;99.90;;;;;;5056696;28;19921;-73
2022/01/25 14:33:04;;;;;;;;;;;4.20;99.90;;;;;;5055919;28;19921;-74
2022/01/25 14:35:31;;;;;;;;;;;4.20;99.90;;;;;;5036983;28;19921;-72
2022/01/25 14:37:57;;;;;;;;;;;4.20;99.90;;;;;;5054088;28;19975;-75
2022/01/25 14:40:22;;;;;;;;;;;4.10;99.90;;;;;;5039159;28;19921;-75
2022/01/25 14:42:49;;;;;;;;;;;4.10;99.90;;;;;;5039519;28;19927;-72
2022/01/25 14:45:19;;;;;;;;;;;4.10;99.90;;;;;;5039998;28;19920;-72
2022/01/25 14:47:47;;;;;;;;;;;4.10;99.90;;;;;;5056288;28;19929;-72
2022/01/25 14:50:33;;;;;;;;;;;4.10;99.90;;;;;;5055004;28;19928;-73
2022/01/25 14:53:06;;;;;;;;;;;4.10;99.90;;;;;;5055864;28;19927;-72
2022/01/25 14:55:33;;;;;;;;;;;4.10;99.90;;;;;;5035830;28;20020;-73
2022/01/25 14:58:20;;;;;;;;;;;4.10;99.90;;;;;;5041239;28;20403;-72
2022/01/25 15:00:50;;;;;;;;;;;4.00;99.90;;;;;;5053822;28;19927;-73
2022/01/25 15:03:16;;;;;;;;;;;4.00;99.90;;;;;;5035241;28;19921;-73
2022/01/25 15:05:41;;;;;;;;;;;4.00;99.90;;;;;;5036378;28;20023;-72
2022/01/25 15:08:07;;;;;;;;;;;4.00;99.90;;;;;;5036327;28;20462;-72
2022/01/25 15:10:33;;;;;;;;;;;4.00;99.90;;;;;;5052964;28;20249;-72
2022/01/25 15:12:59;;;;;;;;;;;4.00;99.90;;;;;;5036387;28;20016;-71
2022/01/25 15:15:28;;;;;;;;;;;3.90;99.90;;;;;;5053076;28;20015;-72
2022/01/25 15:17:54;;;;;;;;;;;3.90;99.90;;;;;;5035908;28;19927;-73
2022/01/25 15:20:20;;;;;;;;;;;3.90;99.90;;;;;;5035868;28;20015;-73
2022/01/25 15:22:47;;;;;;;;;;;3.90;99.90;;;;;;5052645;28;19965;-72
2022/01/25 15:25:19;;;;;;;;;;;3.90;99.90;;;;;;5052683;28;19928;-74
2022/01/25 15:27:45;;;;;;;;;;;3.80;99.90;;;;;;5035708;28;20023;-74
2022/01/25 15:30:12;;;;;;;;;;;3.80;99.90;;;;;;5035952;28;20019;-72
2022/01/25 15:32:37;;;;;;;;;;;3.80;99.90;;;;;;5042903;28;19929;-71
2022/01/25 15:35:04;;;;;;;;;;;3.80;99.90;;;;;;5034251;28;19921;-72
2022/01/25 15:37:30;;;;;;;;;;;3.70;99.90;;;;;;5023065;28;20410;-75
2022/01/25 15:39:55;;;;;;;;;;;3.80;99.90;;;;;;5051832;28;19920;-72
2022/01/25 15:42:23;;;;;;;;;;;3.70;99.90;;;;;;5035991;28;19928;-71
2022/01/25 15:44:50;;;;;;;;;;;3.70;99.90;;;;;;5035786;28;19921;-72
2022/01/25 15:47:17;;;;;;;;;;;3.70;99.90;;;;;;5052662;28;19980;-73
2022/01/25 15:49:43;;;;;;;;;;;3.70;99.90;;;;;;5051365;28;19928;-73
2022/01/25 15:52:09;;;;;;;;;;;3.70;99.90;;;;;;5052259;28;19943;-73
2022/01/25 15:54:35;;;;;;;;;;;3.70;99.90;;;;;;5053183;28;20394;-72
2022/01/25 15:57:01;;;;;;;;;;;3.60;99.90;;;;;;5053291;28;19921;-72
2022/01/25 15:59:26;;;;;;;;;;;3.60;99.90;;;;;;5053034;28;19921;-74
2022/01/25 16:01:53;;;;;;;;;;;3.60;99.90;;;;;;5052677;28;19921;-74
2022/01/25 16:04:19;;;;;;;;;;;3.60;99.90;;;;;;5033137;28;19925;-74
2022/01/25 16:06:45;;;;;;;;;;;3.60;99.90;;;;;;5033776;28;20404;-74
2022/01/25 16:09:10;;;;;;;;;;;3.60;99.90;;;;;;5035296;28;19929;-74
2022/01/25 16:11:36;;;;;;;;;;;3.60;99.90;;;;;;5052177;28;20334;-74
2022/01/25 16:14:02;;;;;;;;;;;3.60;99.90;;;;;;5026933;28;19976;-74
2022/01/25 16:16:27;;;;;;;;;;;3.60;99.90;;;;;;5047884;28;19929;-74
2022/01/25 16:18:53;;;;;;;;;;;3.60;99.90;;;;;;5035013;28;19921;-74
2022/01/25 16:21:19;;;;;;;;;;;3.50;99.90;;;;;;5048307;28;19971;-74
2022/01/25 16:23:44;;;;;;;;;;;3.50;99.90;;;;;;5031218;28;19960;-74
2022/01/25 16:26:13;;;;;;;;;;;3.50;99.90;;;;;;5025714;28;19956;-74
2022/01/25 16:28:39;;;;;;;;;;;3.50;99.90;;;;;;5052416;28;19925;-75
2022/01/25 16:31:16;;;;;;;;;;;3.50;99.90;;;;;;5053148;28;19925;-75